createdAt,value
2018-06-25T00:01:04.801Z,54.48
2018-06-25T00:03:33.615Z,54.49
2018-06-25T00:06:02.760Z,54.60
2018-06-25T00:08:31.795Z,54.77
2018-06-25T00:11:00.534Z,54.78
2018-06-25T00:13:29.252Z,54.85
2018-06-25T00:15:58.029Z,56.34
2018-06-25T00:18:26.787Z,55.59
2018-06-25T00:20:55.606Z,55.56
2018-06-25T00:23:24.399Z,56.25
2018-06-25T00:25:53.390Z,55.70
2018-06-25T00:28:22.117Z,56.37
2018-06-25T00:30:50.874Z,56.46
2018-06-25T00:33:19.614Z,55.80
2018-06-25T00:35:48.356Z,56.19
2018-06-25T00:38:18.003Z,56.28
2018-06-25T00:40:47.358Z,55.79
2018-06-25T00:43:16.073Z,56.21
2018-06-25T00:45:44.823Z,56.25
2018-06-25T00:48:13.625Z,56.96
2018-06-25T00:50:42.344Z,56.34
2018-06-25T00:53:11.110Z,57.34
2018-06-25T00:55:39.841Z,57.34
2018-06-25T00:58:08.685Z,57.56
2018-06-25T01:00:37.789Z,57.70
2018-06-25T01:03:06.611Z,58.51
2018-06-25T01:05:35.463Z,58.40
2018-06-25T01:08:04.198Z,58.35
2018-06-25T01:10:32.910Z,59.01
2018-06-25T01:13:01.599Z,58.08
2018-06-25T01:15:30.305Z,58.83
2018-06-25T01:17:59.093Z,58.11
2018-06-25T01:20:27.847Z,58.66
2018-06-25T01:22:56.622Z,58.42
2018-06-25T01:25:25.334Z,59.00
2018-06-25T01:27:54.157Z,58.43
2018-06-25T01:30:22.929Z,58.54
2018-06-25T01:32:51.645Z,57.94
2018-06-25T01:35:20.365Z,58.28
2018-06-25T01:37:49.117Z,58.14
2018-06-25T01:40:17.844Z,58.76
2018-06-25T01:42:46.534Z,58.80
2018-06-25T01:45:15.328Z,59.80
2018-06-25T01:47:44.046Z,58.69
2018-06-25T01:50:12.759Z,59.85
2018-06-25T01:52:41.578Z,59.12
2018-06-25T01:55:10.276Z,58.95
2018-06-25T01:57:38.991Z,58.82
2018-06-25T02:00:07.818Z,59.88
2018-06-25T02:02:36.550Z,59.30
2018-06-25T02:05:06.183Z,59.06
2018-06-25T02:07:35.243Z,58.81
2018-06-25T02:10:04.100Z,59.43
2018-06-25T02:12:32.967Z,59.31
2018-06-25T02:15:01.696Z,60.60
2018-06-25T02:17:30.414Z,59.69
2018-06-25T02:19:59.117Z,59.52
2018-06-25T02:22:27.871Z,59.80
2018-06-25T02:24:56.574Z,60.50
2018-06-25T02:27:25.291Z,60.91
2018-06-25T02:29:54.007Z,60.53
2018-06-25T02:32:23.165Z,59.69
2018-06-25T02:34:52.508Z,59.98
2018-06-25T02:37:21.267Z,61.37
2018-06-25T02:39:50.489Z,60.96
2018-06-25T02:42:19.279Z,60.73
2018-06-25T02:44:47.964Z,59.95
2018-06-25T02:47:16.834Z,61.05
2018-06-25T02:49:45.666Z,61.74
2018-06-25T02:52:14.451Z,61.28
2018-06-25T02:54:43.171Z,62.20
2018-06-25T02:57:11.896Z,62.30
2018-06-25T02:59:40.634Z,63.04
2018-06-25T03:02:11.509Z,62.67
2018-06-25T03:04:40.251Z,62.28
2018-06-25T03:07:09.391Z,62.45
2018-06-25T03:09:38.107Z,62.58
2018-06-25T03:12:06.897Z,61.85
2018-06-25T03:14:35.621Z,62.30
2018-06-25T03:17:04.357Z,62.80
2018-06-25T03:19:33.107Z,62.27
2018-06-25T03:22:02.053Z,62.49
2018-06-25T03:24:30.841Z,62.40
2018-06-25T03:26:59.582Z,62.38
2018-06-25T03:29:35.526Z,61.63
2018-06-25T03:32:04.714Z,61.39
2018-06-25T03:34:33.399Z,61.34
2018-06-25T03:37:02.215Z,61.69
2018-06-25T03:39:30.967Z,61.70
2018-06-25T03:41:59.773Z,61.56
2018-06-25T03:44:28.513Z,61.85
2018-06-25T03:46:57.238Z,61.50
2018-06-25T03:49:25.995Z,61.67
2018-06-25T03:51:54.910Z,62.53
2018-06-25T03:54:23.630Z,61.81
2018-06-25T03:56:52.385Z,62.36
2018-06-25T03:59:21.135Z,62.74
2018-06-25T04:01:50.053Z,63.09
2018-06-25T04:04:19.028Z,63.10
2018-06-25T04:06:47.792Z,63.20
2018-06-25T04:09:16.516Z,63.17
2018-06-25T04:11:45.264Z,62.89
2018-06-25T04:14:14.003Z,63.44
2018-06-25T04:16:42.726Z,63.25
2018-06-25T04:19:11.511Z,63.07
2018-06-25T04:21:40.273Z,62.33
2018-06-25T04:24:09.087Z,63.29
2018-06-25T04:26:37.852Z,62.66
2018-06-25T04:29:06.962Z,63.18
2018-06-25T04:31:35.671Z,62.55
2018-06-25T04:34:04.840Z,61.28
2018-06-25T04:36:33.679Z,62.14
2018-06-25T04:39:02.426Z,62.39
2018-06-25T04:41:31.274Z,61.55
2018-06-25T04:44:00.031Z,62.06
2018-06-25T04:46:28.813Z,61.66
2018-06-25T04:48:57.556Z,61.95
2018-06-25T04:51:26.299Z,61.13
2018-06-25T04:53:55.053Z,60.99
2018-06-25T04:56:23.829Z,61.15
2018-06-25T04:58:52.647Z,59.94
2018-06-25T05:01:21.725Z,60.12
2018-06-25T05:03:50.591Z,60.09
2018-06-25T05:06:19.365Z,59.60
2018-06-25T05:08:48.265Z,60.01
2018-06-25T05:11:17.078Z,60.38
2018-06-25T05:13:45.931Z,60.89
2018-06-25T05:16:14.775Z,61.67
2018-06-25T05:18:43.638Z,60.82
2018-06-25T05:21:12.435Z,61.35
2018-06-25T05:23:41.258Z,61.21
2018-06-25T05:26:10.158Z,60.95
2018-06-25T05:28:38.992Z,60.80
2018-06-25T05:31:07.894Z,60.50
2018-06-25T05:33:36.659Z,60.80
2018-06-25T05:36:05.907Z,60.97
2018-06-25T05:38:34.807Z,61.04
2018-06-25T05:41:03.720Z,60.50
2018-06-25T05:43:32.528Z,58.83
2018-06-25T05:46:01.350Z,59.53
2018-06-25T05:48:30.096Z,58.84
2018-06-25T05:50:58.867Z,58.83
2018-06-25T05:53:27.576Z,58.14
2018-06-25T05:55:56.336Z,58.45
2018-06-25T05:58:25.711Z,59.92
2018-06-25T06:00:54.617Z,59.94
2018-06-25T06:03:23.351Z,60.46
2018-06-25T06:05:52.174Z,60.56
2018-06-25T06:08:20.981Z,60.71
2018-06-25T06:10:49.809Z,60.52
2018-06-25T06:13:18.591Z,59.44
2018-06-25T06:15:47.477Z,60.82
2018-06-25T06:18:16.229Z,59.65
2018-06-25T06:20:44.968Z,59.93
2018-06-25T06:23:13.823Z,59.84
2018-06-25T06:25:42.954Z,59.21
2018-06-25T06:28:11.734Z,59.60
2018-06-25T06:30:40.594Z,59.31
2018-06-25T06:33:09.409Z,58.18
2018-06-25T06:35:38.224Z,57.45
2018-06-25T06:38:07.019Z,57.96
2018-06-25T06:40:35.748Z,57.37
2018-06-25T06:43:04.627Z,58.35
2018-06-25T06:45:33.845Z,57.90
2018-06-25T06:48:02.790Z,58.53
2018-06-25T06:50:31.605Z,58.58
2018-06-25T06:53:00.325Z,58.26
2018-06-25T06:55:29.063Z,57.28
2018-06-25T06:57:57.847Z,57.63
2018-06-25T07:00:26.727Z,56.68
2018-06-25T07:02:55.462Z,56.82
2018-06-25T07:05:24.215Z,55.51
2018-06-25T07:07:53.066Z,54.77
2018-06-25T07:10:21.855Z,55.90
2018-06-25T07:12:50.734Z,56.17
2018-06-25T07:15:19.494Z,56.16
2018-06-25T07:17:48.386Z,56.44
2018-06-25T07:20:17.143Z,56.77
2018-06-25T07:22:45.855Z,54.88
2018-06-25T07:25:14.670Z,55.75
2018-06-25T07:27:43.646Z,55.57
2018-06-25T07:30:12.542Z,57.39
2018-06-25T07:32:41.409Z,56.58
2018-06-25T07:35:10.187Z,56.54
2018-06-25T07:37:39.062Z,57.06
2018-06-25T07:40:07.854Z,56.82
2018-06-25T07:42:36.992Z,55.35
2018-06-25T07:45:05.777Z,56.12
2018-06-25T07:47:34.546Z,55.67
2018-06-25T07:50:03.493Z,55.52
2018-06-25T07:52:32.231Z,54.79
2018-06-25T07:55:00.966Z,54.38
2018-06-25T07:57:29.796Z,55.05
2018-06-25T07:59:58.545Z,55.74
2018-06-25T08:02:27.337Z,55.41
2018-06-25T08:04:56.132Z,55.56
2018-06-25T08:07:25.043Z,55.07
2018-06-25T08:09:53.869Z,53.70
2018-06-25T08:12:22.807Z,54.07
2018-06-25T08:14:51.656Z,54.52
2018-06-25T08:17:20.519Z,55.13
2018-06-25T08:19:49.468Z,54.43
2018-06-25T08:22:18.230Z,54.64
2018-06-25T08:24:47.133Z,53.78
2018-06-25T08:27:15.903Z,54.31
2018-06-25T08:29:45.248Z,52.77
2018-06-25T08:32:14.590Z,53.19
2018-06-25T08:34:43.460Z,52.76
2018-06-25T08:37:12.887Z,53.64
2018-06-25T08:39:41.785Z,52.91
2018-06-25T08:42:10.622Z,54.03
2018-06-25T08:44:39.510Z,52.30
2018-06-25T08:47:08.361Z,52.66
2018-06-25T08:49:37.228Z,51.25
2018-06-25T08:52:06.794Z,52.17
2018-06-25T08:54:35.615Z,52.22
2018-06-25T08:57:04.484Z,51.93
2018-06-25T08:59:33.397Z,51.87
2018-06-25T09:02:02.358Z,50.20
2018-06-25T09:04:31.121Z,49.75
2018-06-25T09:06:59.957Z,49.43
2018-06-25T09:09:33.922Z,50.37
2018-06-25T09:12:02.901Z,50.08
2018-06-25T09:14:31.716Z,49.67
2018-06-25T09:17:00.538Z,49.82
2018-06-25T09:19:29.376Z,49.28
2018-06-25T09:21:58.358Z,49.22
2018-06-25T09:24:27.327Z,49.50
2018-06-25T09:26:56.217Z,49.46
2018-06-25T09:29:25.257Z,49.42
2018-06-25T09:31:54.063Z,49.59
2018-06-25T09:34:57.431Z,50.61
2018-06-25T09:37:26.563Z,50.04
2018-06-25T09:39:55.348Z,49.48
2018-06-25T09:42:24.159Z,49.96
2018-06-25T09:44:53.024Z,48.70
2018-06-25T09:47:21.868Z,49.10
2018-06-25T09:49:50.920Z,49.33
2018-06-25T09:52:19.794Z,49.42
2018-06-25T09:54:49.083Z,48.23
2018-06-25T09:57:18.011Z,48.26
2018-06-25T09:59:46.733Z,47.72
2018-06-25T10:02:15.524Z,47.03
2018-06-25T10:04:44.310Z,46.86
2018-06-25T10:07:13.100Z,47.38
2018-06-25T10:09:41.939Z,46.46
2018-06-25T10:12:10.667Z,47.70
2018-06-25T10:14:39.494Z,46.42
2018-06-25T10:17:08.447Z,47.18
2018-06-25T10:19:37.197Z,47.62
2018-06-25T10:22:06.186Z,47.12
2018-06-25T10:24:34.963Z,47.41
2018-06-25T10:27:10.276Z,47.35
2018-06-25T10:29:39.100Z,47.30
2018-06-25T10:32:07.923Z,48.43
2018-06-25T10:34:37.152Z,47.73
2018-06-25T10:37:06.059Z,47.33
2018-06-25T10:39:34.802Z,47.96
2018-06-25T10:42:03.998Z,47.24
2018-06-25T10:44:33.086Z,46.53
2018-06-25T10:47:01.922Z,47.49
2018-06-25T10:49:30.754Z,46.26
2018-06-25T10:51:59.555Z,45.76
2018-06-25T10:54:28.379Z,46.37
2018-06-25T10:56:57.130Z,46.84
2018-06-25T10:59:25.991Z,46.66
2018-06-25T11:01:54.872Z,47.26
2018-06-25T11:04:23.718Z,46.12
2018-06-25T11:06:52.528Z,46.82
2018-06-25T11:09:21.376Z,47.37
2018-06-25T11:11:50.282Z,47.11
2018-06-25T11:14:19.157Z,47.06
2018-06-25T11:16:47.919Z,45.83
2018-06-25T11:19:16.722Z,45.25
2018-06-25T11:21:45.478Z,44.33
2018-06-25T11:24:14.240Z,44.01
2018-06-25T11:26:43.099Z,44.70
2018-06-25T11:29:12.855Z,44.82
2018-06-25T11:31:41.631Z,43.89
2018-06-25T11:34:10.397Z,44.33
2018-06-25T11:36:39.201Z,44.15
2018-06-25T11:39:09.854Z,44.26
2018-06-25T11:41:38.700Z,44.83
2018-06-25T11:44:07.627Z,44.52
2018-06-25T11:46:36.491Z,43.24
2018-06-25T11:49:05.714Z,44.01
2018-06-25T11:51:34.476Z,43.24
2018-06-25T11:54:03.302Z,43.05
2018-06-25T11:56:32.120Z,42.62
2018-06-25T11:59:00.883Z,41.96
2018-06-25T12:01:29.652Z,41.28
2018-06-25T12:03:58.983Z,40.81
2018-06-25T12:06:27.815Z,40.73
2018-06-25T12:08:56.613Z,40.88
2018-06-25T12:11:25.459Z,41.88
2018-06-25T12:13:54.218Z,41.94
2018-06-25T12:16:23.859Z,41.42
2018-06-25T12:18:53.083Z,40.28
2018-06-25T12:21:21.789Z,41.66
2018-06-25T12:23:50.594Z,42.05
2018-06-25T12:26:20.335Z,42.70
2018-06-25T12:28:49.669Z,42.71
2018-06-25T12:31:18.477Z,43.84
2018-06-25T12:33:47.275Z,43.96
2018-06-25T12:36:17.290Z,43.50
2018-06-25T12:38:50.945Z,43.64
2018-06-25T12:41:21.204Z,45.26
2018-06-25T12:43:50.423Z,46.20
2018-06-25T12:46:19.252Z,43.78
2018-06-25T12:48:48.486Z,44.50
2018-06-25T12:51:17.269Z,45.99
2018-06-25T12:53:46.106Z,46.24
2018-06-25T12:56:15.103Z,47.34
2018-06-25T12:58:43.840Z,47.29
2018-06-25T13:01:12.696Z,47.76
2018-06-25T13:03:41.496Z,48.76
2018-06-25T13:06:10.319Z,47.27
2018-06-25T13:08:39.073Z,46.81
2018-06-25T13:11:07.890Z,46.12
2018-06-25T13:13:36.731Z,46.92
2018-06-25T13:16:05.526Z,47.28
2018-06-25T13:18:35.022Z,46.64
2018-06-25T13:21:03.943Z,47.24
2018-06-25T13:23:32.850Z,46.79
2018-06-25T13:26:01.747Z,47.49
2018-06-25T13:28:30.555Z,47.38
2018-06-25T13:30:59.489Z,46.90
2018-06-25T13:33:28.493Z,44.83
2018-06-25T13:35:57.297Z,43.34
2018-06-25T13:38:26.096Z,43.22
2018-06-25T13:40:55.036Z,43.18
2018-06-25T13:43:24.325Z,43.62
2018-06-25T13:45:53.196Z,41.64
2018-06-25T13:48:22.023Z,42.31
2018-06-25T13:50:51.017Z,41.97
2018-06-25T13:53:19.803Z,42.03
2018-06-25T13:55:48.498Z,42.60
2018-06-25T13:58:17.320Z,41.91
2018-06-25T14:00:46.063Z,43.06
2018-06-25T14:03:14.862Z,42.69
2018-06-25T14:05:44.655Z,41.65
2018-06-25T14:08:13.553Z,42.79
2018-06-25T14:10:42.457Z,41.41
2018-06-25T14:13:11.285Z,41.82
2018-06-25T14:15:40.079Z,41.81
2018-06-25T14:18:08.966Z,42.70
2018-06-25T14:20:37.764Z,42.48
2018-06-25T14:23:06.997Z,42.54
2018-06-25T14:25:41.005Z,42.29
2018-06-25T14:28:15.136Z,42.35
2018-06-25T14:30:49.368Z,42.11
2018-06-25T14:33:22.288Z,43.30
2018-06-25T14:35:51.433Z,42.36
2018-06-25T14:38:20.312Z,43.13
2018-06-25T14:40:49.112Z,43.67
2018-06-25T14:43:17.993Z,42.98
2018-06-25T14:45:46.815Z,42.90
2018-06-25T14:48:15.602Z,43.58
2018-06-25T14:50:46.434Z,40.86
2018-06-25T14:53:15.181Z,39.00
2018-06-25T14:55:43.981Z,39.01
2018-06-25T14:58:13.776Z,38.68
2018-06-25T15:00:42.602Z,39.38
2018-06-25T15:03:11.359Z,37.45
2018-06-25T15:05:40.108Z,37.80
2018-06-25T15:08:08.898Z,38.30
2018-06-25T15:10:37.649Z,37.99
2018-06-25T15:13:06.964Z,38.20
2018-06-25T15:15:35.864Z,38.43
2018-06-25T15:18:05.087Z,38.68
2018-06-25T15:20:34.093Z,38.84
2018-06-25T15:23:02.955Z,38.85
2018-06-25T15:25:31.791Z,37.43
2018-06-25T15:28:00.670Z,38.84
2018-06-25T15:30:29.417Z,37.96
2018-06-25T15:32:58.435Z,39.58
2018-06-25T15:35:27.256Z,39.59
2018-06-25T15:37:56.158Z,40.11
2018-06-25T15:40:25.038Z,41.38
2018-06-25T15:42:54.867Z,40.14
2018-06-25T15:45:23.588Z,40.99
2018-06-25T15:47:52.365Z,41.20
2018-06-25T15:50:21.114Z,40.67
2018-06-25T15:52:49.874Z,42.50
2018-06-25T15:55:18.635Z,42.59
2018-06-25T15:57:47.481Z,42.09
2018-06-25T16:00:17.530Z,42.21
2018-06-25T16:02:46.266Z,41.32
2018-06-25T16:05:15.032Z,42.85
2018-06-25T16:07:43.878Z,42.63
2018-06-25T16:10:12.651Z,42.60
2018-06-25T16:12:41.505Z,42.88
2018-06-25T16:15:10.317Z,42.32
2018-06-25T16:17:39.227Z,42.56
2018-06-25T16:20:07.962Z,43.10
2018-06-25T16:22:36.893Z,42.90
2018-06-25T16:25:06.330Z,42.48
2018-06-25T16:27:35.162Z,42.43
2018-06-25T16:30:05.800Z,42.74
2018-06-25T16:32:34.549Z,43.16
2018-06-25T16:35:03.427Z,43.88
2018-06-25T16:37:32.191Z,44.14
2018-06-25T16:40:00.976Z,44.37
2018-06-25T16:42:30.954Z,45.34
2018-06-25T16:44:59.735Z,45.32
2018-06-25T16:49:56.515Z,45.79
2018-06-25T16:52:25.370Z,46.06
2018-06-25T16:54:54.224Z,45.42
2018-06-25T16:57:22.975Z,45.62
2018-06-25T16:59:51.750Z,45.60
2018-06-25T17:02:20.554Z,46.27
2018-06-25T17:04:49.482Z,46.44
2018-06-25T17:07:18.338Z,47.55
2018-06-25T17:09:47.156Z,46.79
2018-06-25T17:12:16.309Z,47.69
2018-06-25T17:14:45.552Z,47.43
2018-06-25T17:17:14.312Z,47.88
2018-06-25T17:19:43.087Z,48.38
2018-06-25T17:22:11.836Z,48.40
2018-06-25T17:24:40.597Z,47.58
2018-06-25T17:27:09.307Z,48.04
2018-06-25T17:29:38.024Z,48.61
2018-06-25T17:32:06.781Z,48.95
2018-06-25T17:34:35.534Z,49.18
2018-06-25T17:37:04.886Z,48.54
2018-06-25T17:39:35.642Z,48.96
2018-06-25T17:42:06.254Z,49.50
2018-06-25T17:44:34.954Z,49.25
2018-06-25T17:47:04.293Z,49.27
2018-06-25T17:49:34.924Z,49.75
2018-06-25T17:52:03.690Z,49.76
2018-06-25T17:54:32.485Z,49.56
2018-06-25T17:57:01.579Z,50.31
2018-06-25T17:59:30.391Z,51.10
2018-06-25T18:02:02.269Z,52.41
2018-06-25T18:04:33.124Z,52.16
2018-06-25T18:07:03.939Z,53.08
2018-06-25T18:09:33.546Z,52.87
2018-06-25T18:12:02.929Z,53.20
2018-06-25T18:14:32.153Z,52.70
2018-06-25T18:17:00.935Z,52.79
2018-06-25T18:19:29.782Z,53.23
2018-06-25T18:21:58.611Z,53.32
2018-06-25T18:24:27.440Z,53.51
2018-06-25T18:26:56.436Z,53.98
2018-06-25T18:29:25.208Z,55.00
2018-06-25T18:31:54.018Z,55.55
2018-06-25T18:34:22.735Z,55.26
2018-06-25T18:36:51.522Z,56.28
2018-06-25T18:39:20.284Z,56.30
2018-06-25T18:41:49.108Z,56.57
2018-06-25T18:44:17.906Z,56.37
2018-06-25T18:46:46.629Z,56.49
2018-06-25T18:49:15.412Z,57.30
2018-06-25T18:51:44.335Z,57.09
2018-06-25T18:54:13.183Z,57.60
2018-06-25T18:56:41.956Z,57.19
2018-06-25T18:59:10.688Z,57.30
2018-06-25T19:01:39.399Z,57.65
2018-06-25T19:04:08.580Z,56.90
2018-06-25T19:06:37.635Z,57.77
2018-06-25T19:09:09.588Z,57.35
2018-06-25T19:11:38.747Z,57.44
2018-06-25T19:14:07.962Z,57.75
2018-06-25T19:16:36.764Z,57.32
2018-06-25T19:19:05.693Z,57.29
2018-06-25T19:21:34.399Z,57.77
2018-06-25T19:24:03.179Z,57.64
2018-06-25T19:26:31.921Z,58.01
2018-06-25T19:29:00.639Z,58.77
2018-06-25T19:31:29.402Z,58.40
2018-06-25T19:33:58.158Z,58.58
2018-06-25T19:36:27.290Z,58.86
2018-06-25T19:38:56.054Z,58.53
2018-06-25T19:41:24.878Z,58.83
2018-06-25T19:43:54.654Z,58.89
2018-06-25T19:46:23.407Z,59.20
2018-06-25T19:48:52.453Z,59.63
2018-06-25T19:51:21.228Z,59.83
2018-06-25T19:53:50.374Z,59.17
2018-06-25T19:56:19.556Z,57.96
2018-06-25T19:58:48.340Z,58.20
2018-06-25T20:01:17.145Z,58.22
2018-06-25T20:03:45.921Z,58.29
2018-06-25T20:06:15.025Z,59.18
2018-06-25T20:08:44.068Z,58.41
2018-06-25T20:11:12.895Z,59.25
2018-06-25T20:13:42.092Z,58.00
2018-06-25T20:16:10.934Z,58.75
2018-06-25T20:18:39.751Z,58.42
2018-06-25T20:21:08.457Z,58.48
2018-06-25T20:23:37.531Z,58.00
2018-06-25T20:26:06.628Z,57.93
2018-06-25T20:28:37.179Z,57.68
2018-06-25T20:31:06.006Z,58.54
2018-06-25T20:33:34.722Z,58.52
2018-06-25T20:36:03.911Z,57.89
2018-06-25T20:38:32.636Z,58.37
2018-06-25T20:41:01.427Z,57.67
2018-06-25T20:43:30.171Z,57.61
2018-06-25T20:45:59.126Z,58.08
2018-06-25T20:48:27.982Z,58.47
2018-06-25T20:50:56.751Z,57.90
2018-06-25T20:53:25.558Z,57.52
2018-06-25T20:55:55.051Z,58.04
2018-06-25T20:58:23.806Z,58.21
2018-06-25T21:00:52.594Z,58.21
2018-06-25T21:03:21.429Z,57.38
2018-06-25T21:05:50.412Z,57.07
2018-06-25T21:08:19.106Z,56.87
2018-06-25T21:10:47.827Z,56.46
2018-06-25T21:13:16.590Z,56.67
2018-06-25T21:15:45.755Z,56.74
2018-06-25T21:18:14.512Z,56.71
2018-06-25T21:20:43.255Z,56.25
2018-06-25T21:23:12.387Z,56.46
2018-06-25T21:25:41.093Z,55.79
2018-06-25T21:28:10.106Z,56.04
2018-06-25T21:30:40.233Z,56.63
2018-06-25T21:33:10.125Z,55.82
2018-06-25T21:35:39.364Z,56.51
2018-06-25T21:38:08.536Z,56.03
2018-06-25T21:40:37.753Z,56.29
2018-06-25T21:43:06.546Z,56.43
2018-06-25T21:45:35.304Z,55.71
2018-06-25T21:48:04.023Z,56.40
2018-06-25T21:50:32.750Z,55.94
2018-06-25T21:53:01.509Z,56.13
2018-06-25T21:55:30.269Z,56.78
2018-06-25T21:57:59.023Z,56.34
2018-06-25T22:00:37.583Z,56.62
2018-06-25T22:03:06.280Z,55.85
2018-06-25T22:05:35.011Z,56.76
2018-06-25T22:08:03.783Z,56.41
2018-06-25T22:10:32.561Z,55.87
2018-06-25T22:13:01.260Z,56.13
2018-06-25T22:15:30.088Z,55.76
2018-06-25T22:17:59.168Z,56.46
2018-06-25T22:20:28.149Z,55.43
2018-06-25T22:22:56.951Z,55.86
2018-06-25T22:25:26.156Z,55.53
2018-06-25T22:27:55.011Z,55.78
2018-06-25T22:30:23.994Z,55.64
2018-06-25T22:32:52.787Z,55.36
2018-06-25T22:35:21.507Z,56.10
2018-06-25T22:37:51.111Z,55.91
2018-06-25T22:40:19.854Z,55.95
2018-06-25T22:42:49.582Z,55.31
2018-06-25T22:45:18.354Z,55.19
2018-06-25T22:47:47.151Z,55.14
2018-06-25T22:50:15.950Z,55.64
2018-06-25T22:52:44.631Z,55.70
2018-06-25T22:55:13.362Z,56.23
2018-06-25T22:57:42.188Z,56.30
2018-06-25T23:00:10.958Z,56.26
2018-06-25T23:02:39.706Z,55.59
2018-06-25T23:05:08.842Z,56.12
2018-06-25T23:07:37.591Z,56.09
2018-06-25T23:10:06.332Z,55.80
2018-06-25T23:12:35.023Z,55.80
2018-06-25T23:15:03.821Z,56.30
2018-06-25T23:17:32.522Z,55.80
2018-06-25T23:20:01.294Z,56.37
2018-06-25T23:22:30.006Z,55.68
2018-06-25T23:24:58.762Z,56.56
2018-06-25T23:27:27.481Z,56.48
2018-06-25T23:29:56.168Z,56.59
2018-06-25T23:32:24.950Z,56.33
2018-06-25T23:34:53.676Z,56.74
2018-06-25T23:37:22.414Z,56.75
2018-06-25T23:39:57.480Z,56.76
2018-06-25T23:42:26.187Z,56.99
2018-06-25T23:44:55.189Z,56.54
2018-06-25T23:47:23.939Z,56.45
2018-06-25T23:49:52.659Z,56.63
2018-06-25T23:52:21.408Z,57.35
2018-06-25T23:54:50.122Z,57.38
2018-06-25T23:57:18.986Z,57.16
2018-06-25T23:59:47.711Z,57.51
